sensor_id;sensor_type;location;lat;lon;timestamp;P1;durP1;ratioP1;P2;durP2;ratioP2
44147;SDS011;29810;55.848;37.368;2023-06-14T00:00:27;14.27;;;6.35;;
44147;SDS011;29810;55.848;37.368;2023-06-14T00:03:29;13.62;;;6.40;;
44147;SDS011;29810;55.848;37.368;2023-06-14T00:06:32;12.55;;;6.70;;
44147;SDS011;29810;55.848;37.368;2023-06-14T00:09:35;12.95;;;6.05;;
44147;SDS011;29810;55.848;37.368;2023-06-14T00:12:37;13.62;;;6.12;;
44147;SDS011;29810;55.848;37.368;2023-06-14T00:15:40;13.07;;;6.22;;
44147;SDS011;29810;55.848;37.368;2023-06-14T00:18:41;8.45;;;6.00;;
44147;SDS011;29810;55.848;37.368;2023-06-14T00:21:43;9.82;;;6.57;;
44147;SDS011;29810;55.848;37.368;2023-06-14T00:24:44;15.63;;;6.68;;
44147;SDS011;29810;55.848;37.368;2023-06-14T00:27:48;9.93;;;5.97;;
44147;SDS011;29810;55.848;37.368;2023-06-14T00:30:50;12.27;;;7.00;;
44147;SDS011;29810;55.848;37.368;2023-06-14T00:33:52;12.32;;;6.00;;
44147;SDS011;29810;55.848;37.368;2023-06-14T00:36:53;14.10;;;7.05;;
44147;SDS011;29810;55.848;37.368;2023-06-14T00:39:55;10.65;;;7.05;;
44147;SDS011;29810;55.848;37.368;2023-06-14T00:42:56;11.95;;;6.68;;
44147;SDS011;29810;55.848;37.368;2023-06-14T00:45:58;11.25;;;6.62;;
44147;SDS011;29810;55.848;37.368;2023-06-14T00:49:01;11.77;;;6.60;;
44147;SDS011;29810;55.848;37.368;2023-06-14T00:52:03;14.35;;;6.80;;
44147;SDS011;29810;55.848;37.368;2023-06-14T00:55:05;12.23;;;6.70;;
44147;SDS011;29810;55.848;37.368;2023-06-14T00:58:07;11.75;;;7.30;;
44147;SDS011;29810;55.848;37.368;2023-06-14T01:01:09;13.82;;;7.05;;
44147;SDS011;29810;55.848;37.368;2023-06-14T01:04:11;15.13;;;7.07;;
44147;SDS011;29810;55.848;37.368;2023-06-14T01:14:32;11.45;;;7.37;;
44147;SDS011;29810;55.848;37.368;2023-06-14T01:17:36;10.65;;;6.93;;
44147;SDS011;29810;55.848;37.368;2023-06-14T01:20:45;13.30;;;6.78;;
44147;SDS011;29810;55.848;37.368;2023-06-14T01:23:51;9.52;;;6.90;;
44147;SDS011;29810;55.848;37.368;2023-06-14T01:26:56;9.73;;;6.33;;
44147;SDS011;29810;55.848;37.368;2023-06-14T01:30:02;16.87;;;6.45;;
44147;SDS011;29810;55.848;37.368;2023-06-14T01:33:06;9.65;;;7.05;;
44147;SDS011;29810;55.848;37.368;2023-06-14T01:36:08;12.77;;;6.25;;
44147;SDS011;29810;55.848;37.368;2023-06-14T01:39:11;15.02;;;6.87;;
44147;SDS011;29810;55.848;37.368;2023-06-14T01:42:15;12.68;;;6.80;;
44147;SDS011;29810;55.848;37.368;2023-06-14T01:45:18;10.48;;;6.97;;
44147;SDS011;29810;55.848;37.368;2023-06-14T01:48:21;13.80;;;7.12;;
44147;SDS011;29810;55.848;37.368;2023-06-14T01:51:22;9.57;;;6.62;;
44147;SDS011;29810;55.848;37.368;2023-06-14T01:54:24;8.80;;;6.75;;
44147;SDS011;29810;55.848;37.368;2023-06-14T01:57:26;12.00;;;6.85;;
44147;SDS011;29810;55.848;37.368;2023-06-14T02:00:28;10.77;;;7.12;;
44147;SDS011;29810;55.848;37.368;2023-06-14T02:03:30;9.35;;;7.10;;
44147;SDS011;29810;55.848;37.368;2023-06-14T02:06:32;9.40;;;7.07;;
44147;SDS011;29810;55.848;37.368;2023-06-14T02:09:34;11.85;;;6.97;;
44147;SDS011;29810;55.848;37.368;2023-06-14T02:12:36;10.18;;;7.28;;
44147;SDS011;29810;55.848;37.368;2023-06-14T02:15:37;11.77;;;6.43;;
44147;SDS011;29810;55.848;37.368;2023-06-14T02:18:39;13.88;;;7.53;;
44147;SDS011;29810;55.848;37.368;2023-06-14T02:22:01;12.23;;;6.78;;
44147;SDS011;29810;55.848;37.368;2023-06-14T02:25:02;9.95;;;6.70;;
44147;SDS011;29810;55.848;37.368;2023-06-14T02:28:04;12.18;;;7.90;;
44147;SDS011;29810;55.848;37.368;2023-06-14T02:31:06;10.35;;;7.28;;
44147;SDS011;29810;55.848;37.368;2023-06-14T02:34:08;11.90;;;7.10;;
44147;SDS011;29810;55.848;37.368;2023-06-14T02:37:09;13.60;;;7.37;;
44147;SDS011;29810;55.848;37.368;2023-06-14T02:40:12;12.02;;;7.47;;
44147;SDS011;29810;55.848;37.368;2023-06-14T02:43:13;19.90;;;7.95;;
44147;SDS011;29810;55.848;37.368;2023-06-14T02:46:16;12.27;;;7.87;;
44147;SDS011;29810;55.848;37.368;2023-06-14T02:49:17;14.00;;;8.18;;
44147;SDS011;29810;55.848;37.368;2023-06-14T02:52:19;13.30;;;7.65;;
44147;SDS011;29810;55.848;37.368;2023-06-14T02:55:21;10.98;;;7.65;;
44147;SDS011;29810;55.848;37.368;2023-06-14T02:58:23;11.95;;;7.20;;
44147;SDS011;29810;55.848;37.368;2023-06-14T03:01:26;10.68;;;7.50;;
44147;SDS011;29810;55.848;37.368;2023-06-14T03:04:36;12.55;;;7.10;;
44147;SDS011;29810;55.848;37.368;2023-06-14T03:10:46;9.30;;;7.62;;
44147;SDS011;29810;55.848;37.368;2023-06-14T03:13:48;9.95;;;7.93;;
44147;SDS011;29810;55.848;37.368;2023-06-14T03:16:52;12.02;;;7.37;;
44147;SDS011;29810;55.848;37.368;2023-06-14T03:19:58;10.40;;;7.60;;
44147;SDS011;29810;55.848;37.368;2023-06-14T03:23:00;9.80;;;7.00;;
44147;SDS011;29810;55.848;37.368;2023-06-14T03:26:03;10.77;;;7.12;;
44147;SDS011;29810;55.848;37.368;2023-06-14T03:29:05;12.20;;;8.07;;
44147;SDS011;29810;55.848;37.368;2023-06-14T03:32:06;12.05;;;7.47;;
44147;SDS011;29810;55.848;37.368;2023-06-14T03:35:09;12.40;;;7.90;;
44147;SDS011;29810;55.848;37.368;2023-06-14T03:38:18;13.18;;;7.72;;
44147;SDS011;29810;55.848;37.368;2023-06-14T03:41:20;16.58;;;8.75;;
44147;SDS011;29810;55.848;37.368;2023-06-14T03:44:26;10.88;;;7.57;;
44147;SDS011;29810;55.848;37.368;2023-06-14T03:47:28;12.00;;;7.53;;
44147;SDS011;29810;55.848;37.368;2023-06-14T03:50:29;10.35;;;7.65;;
44147;SDS011;29810;55.848;37.368;2023-06-14T03:53:33;10.02;;;7.85;;
44147;SDS011;29810;55.848;37.368;2023-06-14T03:56:38;10.00;;;7.70;;
44147;SDS011;29810;55.848;37.368;2023-06-14T03:59:41;12.77;;;7.65;;
44147;SDS011;29810;55.848;37.368;2023-06-14T04:02:42;10.40;;;7.57;;
44147;SDS011;29810;55.848;37.368;2023-06-14T04:05:45;13.23;;;7.15;;
44147;SDS011;29810;55.848;37.368;2023-06-14T04:08:51;16.50;;;7.35;;
44147;SDS011;29810;55.848;37.368;2023-06-14T04:11:53;9.98;;;6.40;;
44147;SDS011;29810;55.848;37.368;2023-06-14T04:14:54;11.18;;;7.28;;
44147;SDS011;29810;55.848;37.368;2023-06-14T04:17:56;9.35;;;6.62;;
44147;SDS011;29810;55.848;37.368;2023-06-14T04:20:58;11.75;;;6.45;;
44147;SDS011;29810;55.848;37.368;2023-06-14T04:24:00;10.02;;;6.80;;
44147;SDS011;29810;55.848;37.368;2023-06-14T04:27:02;10.82;;;6.18;;
44147;SDS011;29810;55.848;37.368;2023-06-14T04:30:05;12.70;;;6.05;;
44147;SDS011;29810;55.848;37.368;2023-06-14T04:33:08;19.77;;;6.12;;
44147;SDS011;29810;55.848;37.368;2023-06-14T04:36:11;10.00;;;6.30;;
44147;SDS011;29810;55.848;37.368;2023-06-14T04:39:13;11.88;;;5.80;;
44147;SDS011;29810;55.848;37.368;2023-06-14T04:42:15;8.60;;;5.55;;
44147;SDS011;29810;55.848;37.368;2023-06-14T04:45:18;9.75;;;6.30;;
44147;SDS011;29810;55.848;37.368;2023-06-14T04:48:21;11.10;;;6.20;;
44147;SDS011;29810;55.848;37.368;2023-06-14T04:51:23;8.20;;;5.53;;
44147;SDS011;29810;55.848;37.368;2023-06-14T04:54:30;9.88;;;5.93;;
44147;SDS011;29810;55.848;37.368;2023-06-14T04:57:37;7.32;;;4.95;;
44147;SDS011;29810;55.848;37.368;2023-06-14T05:00:40;11.63;;;6.00;;
44147;SDS011;29810;55.848;37.368;2023-06-14T05:03:43;6.97;;;5.20;;
44147;SDS011;29810;55.848;37.368;2023-06-14T05:06:46;9.05;;;5.78;;
44147;SDS011;29810;55.848;37.368;2023-06-14T05:09:53;8.20;;;4.60;;
44147;SDS011;29810;55.848;37.368;2023-06-14T05:12:55;8.55;;;5.70;;
44147;SDS011;29810;55.848;37.368;2023-06-14T05:15:57;10.02;;;4.87;;
44147;SDS011;29810;55.848;37.368;2023-06-14T05:18:59;7.90;;;4.90;;
44147;SDS011;29810;55.848;37.368;2023-06-14T05:22:02;9.52;;;4.55;;
44147;SDS011;29810;55.848;37.368;2023-06-14T05:25:04;10.40;;;4.47;;
44147;SDS011;29810;55.848;37.368;2023-06-14T05:28:06;8.88;;;4.47;;
44147;SDS011;29810;55.848;37.368;2023-06-14T05:31:08;8.10;;;4.50;;
44147;SDS011;29810;55.848;37.368;2023-06-14T05:34:09;7.82;;;4.25;;
44147;SDS011;29810;55.848;37.368;2023-06-14T05:37:11;9.18;;;4.15;;
44147;SDS011;29810;55.848;37.368;2023-06-14T05:40:12;7.50;;;4.28;;
44147;SDS011;29810;55.848;37.368;2023-06-14T05:43:14;7.85;;;3.80;;
44147;SDS011;29810;55.848;37.368;2023-06-14T05:46:16;7.40;;;3.97;;
44147;SDS011;29810;55.848;37.368;2023-06-14T05:49:23;8.82;;;3.90;;
44147;SDS011;29810;55.848;37.368;2023-06-14T05:52:24;7.45;;;4.07;;
44147;SDS011;29810;55.848;37.368;2023-06-14T05:55:26;10.65;;;4.30;;
44147;SDS011;29810;55.848;37.368;2023-06-14T05:58:27;7.62;;;4.03;;
44147;SDS011;29810;55.848;37.368;2023-06-14T06:01:29;8.48;;;4.35;;
44147;SDS011;29810;55.848;37.368;2023-06-14T06:04:31;8.25;;;3.70;;
44147;SDS011;29810;55.848;37.368;2023-06-14T06:07:33;7.30;;;4.20;;
44147;SDS011;29810;55.848;37.368;2023-06-14T06:10:34;10.00;;;4.62;;
44147;SDS011;29810;55.848;37.368;2023-06-14T06:13:36;7.82;;;4.18;;
44147;SDS011;29810;55.848;37.368;2023-06-14T06:16:38;11.70;;;4.45;;
44147;SDS011;29810;55.848;37.368;2023-06-14T06:19:40;7.65;;;3.83;;
44147;SDS011;29810;55.848;37.368;2023-06-14T06:22:41;9.13;;;4.03;;
44147;SDS011;29810;55.848;37.368;2023-06-14T06:25:43;11.55;;;3.97;;
44147;SDS011;29810;55.848;37.368;2023-06-14T06:28:44;6.53;;;4.07;;
44147;SDS011;29810;55.848;37.368;2023-06-14T06:31:46;4.57;;;3.90;;
44147;SDS011;29810;55.848;37.368;2023-06-14T06:34:47;6.37;;;4.12;;
44147;SDS011;29810;55.848;37.368;2023-06-14T06:37:49;8.60;;;3.60;;
44147;SDS011;29810;55.848;37.368;2023-06-14T06:40:51;9.02;;;3.70;;
44147;SDS011;29810;55.848;37.368;2023-06-14T06:43:52;5.00;;;3.00;;
44147;SDS011;29810;55.848;37.368;2023-06-14T06:46:54;6.95;;;3.62;;
44147;SDS011;29810;55.848;37.368;2023-06-14T06:49:55;5.07;;;3.72;;
44147;SDS011;29810;55.848;37.368;2023-06-14T06:52:57;8.85;;;3.47;;
44147;SDS011;29810;55.848;37.368;2023-06-14T06:55:58;4.03;;;3.22;;
44147;SDS011;29810;55.848;37.368;2023-06-14T06:59:00;8.30;;;3.42;;
44147;SDS011;29810;55.848;37.368;2023-06-14T07:02:02;6.97;;;3.62;;
44147;SDS011;29810;55.848;37.368;2023-06-14T07:05:04;5.12;;;3.60;;
44147;SDS011;29810;55.848;37.368;2023-06-14T07:08:07;6.00;;;3.37;;
44147;SDS011;29810;55.848;37.368;2023-06-14T07:11:09;6.82;;;4.10;;
44147;SDS011;29810;55.848;37.368;2023-06-14T07:14:10;6.62;;;3.72;;
44147;SDS011;29810;55.848;37.368;2023-06-14T07:17:12;6.03;;;3.53;;
44147;SDS011;29810;55.848;37.368;2023-06-14T07:20:14;6.10;;;3.60;;
44147;SDS011;29810;55.848;37.368;2023-06-14T07:23:17;6.50;;;3.83;;
44147;SDS011;29810;55.848;37.368;2023-06-14T07:26:18;6.32;;;3.78;;
44147;SDS011;29810;55.848;37.368;2023-06-14T07:29:20;7.85;;;4.30;;
44147;SDS011;29810;55.848;37.368;2023-06-14T07:32:22;8.02;;;3.53;;
44147;SDS011;29810;55.848;37.368;2023-06-14T07:35:24;9.40;;;4.10;;
44147;SDS011;29810;55.848;37.368;2023-06-14T07:38:28;7.97;;;4.18;;
44147;SDS011;29810;55.848;37.368;2023-06-14T07:41:31;7.57;;;3.60;;
44147;SDS011;29810;55.848;37.368;2023-06-14T07:44:33;5.95;;;4.10;;
44147;SDS011;29810;55.848;37.368;2023-06-14T07:47:35;5.32;;;3.72;;
44147;SDS011;29810;55.848;37.368;2023-06-14T07:50:36;10.75;;;4.07;;
44147;SDS011;29810;55.848;37.368;2023-06-14T07:53:41;11.02;;;4.32;;
44147;SDS011;29810;55.848;37.368;2023-06-14T07:56:43;7.45;;;3.90;;
44147;SDS011;29810;55.848;37.368;2023-06-14T07:59:45;5.60;;;3.83;;
44147;SDS011;29810;55.848;37.368;2023-06-14T08:02:47;7.32;;;3.97;;
44147;SDS011;29810;55.848;37.368;2023-06-14T08:05:48;6.90;;;3.90;;
44147;SDS011;29810;55.848;37.368;2023-06-14T08:08:50;7.05;;;3.80;;
44147;SDS011;29810;55.848;37.368;2023-06-14T08:11:52;8.10;;;3.87;;
44147;SDS011;29810;55.848;37.368;2023-06-14T08:14:53;6.70;;;3.72;;
44147;SDS011;29810;55.848;37.368;2023-06-14T08:17:55;7.15;;;4.18;;
44147;SDS011;29810;55.848;37.368;2023-06-14T08:20:57;7.15;;;3.90;;
44147;SDS011;29810;55.848;37.368;2023-06-14T08:23:59;6.85;;;3.65;;
44147;SDS011;29810;55.848;37.368;2023-06-14T08:27:09;8.73;;;4.12;;
44147;SDS011;29810;55.848;37.368;2023-06-14T08:30:11;8.32;;;3.65;;
44147;SDS011;29810;55.848;37.368;2023-06-14T08:33:13;10.15;;;4.25;;
44147;SDS011;29810;55.848;37.368;2023-06-14T08:36:15;10.52;;;4.18;;
44147;SDS011;29810;55.848;37.368;2023-06-14T08:39:16;8.50;;;4.00;;
44147;SDS011;29810;55.848;37.368;2023-06-14T08:42:18;6.12;;;4.20;;
44147;SDS011;29810;55.848;37.368;2023-06-14T08:45:23;7.85;;;4.12;;
44147;SDS011;29810;55.848;37.368;2023-06-14T08:48:26;7.47;;;4.05;;
44147;SDS011;29810;55.848;37.368;2023-06-14T08:51:28;8.07;;;4.50;;
44147;SDS011;29810;55.848;37.368;2023-06-14T08:54:38;6.45;;;3.80;;
44147;SDS011;29810;55.848;37.368;2023-06-14T08:57:46;8.30;;;3.85;;
44147;SDS011;29810;55.848;37.368;2023-06-14T09:00:51;9.40;;;3.80;;
44147;SDS011;29810;55.848;37.368;2023-06-14T09:03:53;4.75;;;3.95;;
44147;SDS011;29810;55.848;37.368;2023-06-14T09:06:58;8.43;;;3.97;;
44147;SDS011;29810;55.848;37.368;2023-06-14T09:10:10;9.98;;;3.67;;
44147;SDS011;29810;55.848;37.368;2023-06-14T09:13:13;6.50;;;4.05;;
44147;SDS011;29810;55.848;37.368;2023-06-14T09:16:17;29.42;;;5.72;;
44147;SDS011;29810;55.848;37.368;2023-06-14T09:19:23;6.97;;;3.85;;
44147;SDS011;29810;55.848;37.368;2023-06-14T09:22:32;12.48;;;4.35;;
44147;SDS011;29810;55.848;37.368;2023-06-14T09:25:45;6.03;;;4.28;;
44147;SDS011;29810;55.848;37.368;2023-06-14T09:28:47;7.25;;;4.32;;
44147;SDS011;29810;55.848;37.368;2023-06-14T09:31:51;6.50;;;4.18;;
44147;SDS011;29810;55.848;37.368;2023-06-14T09:34:52;7.60;;;3.90;;
44147;SDS011;29810;55.848;37.368;2023-06-14T09:37:54;7.37;;;4.10;;
44147;SDS011;29810;55.848;37.368;2023-06-14T09:40:57;8.20;;;3.85;;
44147;SDS011;29810;55.848;37.368;2023-06-14T09:44:01;10.55;;;4.05;;
44147;SDS011;29810;55.848;37.368;2023-06-14T09:47:04;5.87;;;4.40;;
44147;SDS011;29810;55.848;37.368;2023-06-14T09:50:06;8.40;;;4.00;;
44147;SDS011;29810;55.848;37.368;2023-06-14T09:53:09;8.15;;;4.12;;
44147;SDS011;29810;55.848;37.368;2023-06-14T09:56:13;5.53;;;3.87;;
44147;SDS011;29810;55.848;37.368;2023-06-14T09:59:19;7.62;;;4.50;;
44147;SDS011;29810;55.848;37.368;2023-06-14T10:02:29;7.60;;;4.20;;
44147;SDS011;29810;55.848;37.368;2023-06-14T10:05:39;7.03;;;4.10;;
44147;SDS011;29810;55.848;37.368;2023-06-14T10:08:44;7.87;;;4.28;;
44147;SDS011;29810;55.848;37.368;2023-06-14T10:11:47;9.50;;;4.12;;
44147;SDS011;29810;55.848;37.368;2023-06-14T10:14:50;7.62;;;4.22;;
44147;SDS011;29810;55.848;37.368;2023-06-14T10:18:03;6.32;;;3.83;;
44147;SDS011;29810;55.848;37.368;2023-06-14T10:24:15;5.70;;;3.78;;
44147;SDS011;29810;55.848;37.368;2023-06-14T10:30:25;4.93;;;3.65;;
44147;SDS011;29810;55.848;37.368;2023-06-14T10:33:27;5.55;;;3.78;;
44147;SDS011;29810;55.848;37.368;2023-06-14T10:36:29;5.62;;;3.95;;
44147;SDS011;29810;55.848;37.368;2023-06-14T10:39:38;5.72;;;3.92;;
44147;SDS011;29810;55.848;37.368;2023-06-14T10:42:50;10.10;;;4.10;;
44147;SDS011;29810;55.848;37.368;2023-06-14T10:49:18;9.50;;;4.10;;
44147;SDS011;29810;55.848;37.368;2023-06-14T10:52:21;6.20;;;3.87;;
44147;SDS011;29810;55.848;37.368;2023-06-14T10:55:24;6.97;;;3.90;;
44147;SDS011;29810;55.848;37.368;2023-06-14T10:58:26;7.85;;;3.42;;
44147;SDS011;29810;55.848;37.368;2023-06-14T11:04:51;5.80;;;4.30;;
44147;SDS011;29810;55.848;37.368;2023-06-14T11:11:13;5.43;;;3.47;;
44147;SDS011;29810;55.848;37.368;2023-06-14T11:14:15;9.75;;;3.90;;
44147;SDS011;29810;55.848;37.368;2023-06-14T11:17:18;6.72;;;3.62;;
44147;SDS011;29810;55.848;37.368;2023-06-14T11:20:24;4.80;;;3.92;;
44147;SDS011;29810;55.848;37.368;2023-06-14T11:23:26;4.72;;;3.28;;
44147;SDS011;29810;55.848;37.368;2023-06-14T11:26:29;5.12;;;3.53;;
44147;SDS011;29810;55.848;37.368;2023-06-14T11:29:32;5.87;;;3.65;;
44147;SDS011;29810;55.848;37.368;2023-06-14T11:32:34;5.78;;;3.70;;
44147;SDS011;29810;55.848;37.368;2023-06-14T11:35:36;6.30;;;3.80;;
44147;SDS011;29810;55.848;37.368;2023-06-14T11:38:39;7.68;;;3.80;;
44147;SDS011;29810;55.848;37.368;2023-06-14T11:41:43;8.38;;;3.67;;
44147;SDS011;29810;55.848;37.368;2023-06-14T11:44:46;8.00;;;4.07;;
44147;SDS011;29810;55.848;37.368;2023-06-14T11:47:50;8.63;;;3.83;;
44147;SDS011;29810;55.848;37.368;2023-06-14T11:50:52;4.07;;;3.62;;
44147;SDS011;29810;55.848;37.368;2023-06-14T11:53:54;6.32;;;3.60;;
44147;SDS011;29810;55.848;37.368;2023-06-14T11:56:56;8.05;;;3.92;;
44147;SDS011;29810;55.848;37.368;2023-06-14T11:59:58;6.80;;;3.70;;
44147;SDS011;29810;55.848;37.368;2023-06-14T12:03:00;5.53;;;3.42;;
44147;SDS011;29810;55.848;37.368;2023-06-14T12:06:05;5.30;;;3.85;;
44147;SDS011;29810;55.848;37.368;2023-06-14T12:09:10;5.82;;;3.80;;
44147;SDS011;29810;55.848;37.368;2023-06-14T12:12:16;7.90;;;3.63;;
44147;SDS011;29810;55.848;37.368;2023-06-14T12:15:17;6.43;;;3.72;;
44147;SDS011;29810;55.848;37.368;2023-06-14T12:18:19;6.20;;;3.67;;
44147;SDS011;29810;55.848;37.368;2023-06-14T12:21:22;4.68;;;3.50;;
44147;SDS011;29810;55.848;37.368;2023-06-14T12:24:27;8.07;;;3.40;;
44147;SDS011;29810;55.848;37.368;2023-06-14T12:27:30;4.82;;;3.30;;
44147;SDS011;29810;55.848;37.368;2023-06-14T12:31:43;4.50;;;3.50;;
44147;SDS011;29810;55.848;37.368;2023-06-14T12:34:44;6.20;;;3.80;;
44147;SDS011;29810;55.848;37.368;2023-06-14T12:37:46;6.07;;;3.42;;
44147;SDS011;29810;55.848;37.368;2023-06-14T12:40:48;6.50;;;3.60;;
44147;SDS011;29810;55.848;37.368;2023-06-14T12:43:52;4.60;;;3.87;;
44147;SDS011;29810;55.848;37.368;2023-06-14T12:47:08;5.35;;;3.62;;
44147;SDS011;29810;55.848;37.368;2023-06-14T12:50:22;6.43;;;3.45;;
44147;SDS011;29810;55.848;37.368;2023-06-14T12:53:24;5.45;;;3.50;;
44147;SDS011;29810;55.848;37.368;2023-06-14T12:56:25;11.10;;;3.70;;
44147;SDS011;29810;55.848;37.368;2023-06-14T12:59:27;8.85;;;3.83;;
44147;SDS011;29810;55.848;37.368;2023-06-14T13:02:33;7.55;;;3.80;;
44147;SDS011;29810;55.848;37.368;2023-06-14T13:05:36;5.85;;;3.80;;
44147;SDS011;29810;55.848;37.368;2023-06-14T13:08:38;5.75;;;3.70;;
44147;SDS011;29810;55.848;37.368;2023-06-14T13:11:42;4.87;;;3.50;;
44147;SDS011;29810;55.848;37.368;2023-06-14T13:14:46;6.43;;;3.53;;
44147;SDS011;29810;55.848;37.368;2023-06-14T13:17:48;6.30;;;3.20;;
44147;SDS011;29810;55.848;37.368;2023-06-14T13:20:50;5.95;;;3.70;;
44147;SDS011;29810;55.848;37.368;2023-06-14T13:23:52;5.03;;;3.65;;
44147;SDS011;29810;55.848;37.368;2023-06-14T13:26:53;5.90;;;3.70;;
44147;SDS011;29810;55.848;37.368;2023-06-14T13:29:56;5.60;;;3.90;;
44147;SDS011;29810;55.848;37.368;2023-06-14T13:32:58;5.12;;;3.40;;
44147;SDS011;29810;55.848;37.368;2023-06-14T13:36:00;5.37;;;3.47;;
44147;SDS011;29810;55.848;37.368;2023-06-14T13:39:03;10.90;;;3.65;;
44147;SDS011;29810;55.848;37.368;2023-06-14T13:42:05;6.32;;;3.85;;
44147;SDS011;29810;55.848;37.368;2023-06-14T13:45:07;6.20;;;3.55;;
44147;SDS011;29810;55.848;37.368;2023-06-14T13:48:09;6.68;;;3.90;;
44147;SDS011;29810;55.848;37.368;2023-06-14T13:51:11;6.75;;;3.80;;
44147;SDS011;29810;55.848;37.368;2023-06-14T13:54:13;6.30;;;3.92;;
44147;SDS011;29810;55.848;37.368;2023-06-14T13:57:16;5.75;;;3.80;;
44147;SDS011;29810;55.848;37.368;2023-06-14T14:00:18;5.72;;;3.80;;
44147;SDS011;29810;55.848;37.368;2023-06-14T14:03:20;6.32;;;3.95;;
44147;SDS011;29810;55.848;37.368;2023-06-14T14:06:22;5.22;;;3.67;;
44147;SDS011;29810;55.848;37.368;2023-06-14T14:09:24;5.82;;;3.70;;
44147;SDS011;29810;55.848;37.368;2023-06-14T14:12:25;6.20;;;3.83;;
44147;SDS011;29810;55.848;37.368;2023-06-14T14:15:27;4.87;;;3.40;;
44147;SDS011;29810;55.848;37.368;2023-06-14T14:18:29;6.37;;;3.67;;
44147;SDS011;29810;55.848;37.368;2023-06-14T14:21:32;8.45;;;3.70;;
44147;SDS011;29810;55.848;37.368;2023-06-14T14:24:34;4.93;;;3.90;;
44147;SDS011;29810;55.848;37.368;2023-06-14T14:27:36;7.37;;;3.90;;
44147;SDS011;29810;55.848;37.368;2023-06-14T14:30:37;6.18;;;3.83;;
44147;SDS011;29810;55.848;37.368;2023-06-14T14:33:44;5.85;;;3.65;;
44147;SDS011;29810;55.848;37.368;2023-06-14T14:36:45;4.45;;;3.42;;
44147;SDS011;29810;55.848;37.368;2023-06-14T14:39:47;6.20;;;3.62;;
44147;SDS011;29810;55.848;37.368;2023-06-14T14:42:48;6.00;;;3.67;;
44147;SDS011;29810;55.848;37.368;2023-06-14T14:45:50;9.82;;;3.90;;
44147;SDS011;29810;55.848;37.368;2023-06-14T14:48:51;5.20;;;3.33;;
44147;SDS011;29810;55.848;37.368;2023-06-14T14:51:53;6.85;;;3.80;;
44147;SDS011;29810;55.848;37.368;2023-06-14T14:54:57;7.32;;;3.70;;
44147;SDS011;29810;55.848;37.368;2023-06-14T14:57:58;7.05;;;3.75;;
44147;SDS011;29810;55.848;37.368;2023-06-14T15:01:00;7.32;;;3.95;;
44147;SDS011;29810;55.848;37.368;2023-06-14T15:04:02;5.85;;;3.97;;
44147;SDS011;29810;55.848;37.368;2023-06-14T15:07:03;7.80;;;3.90;;
44147;SDS011;29810;55.848;37.368;2023-06-14T15:10:05;6.72;;;3.80;;
44147;SDS011;29810;55.848;37.368;2023-06-14T15:13:08;8.88;;;3.75;;
44147;SDS011;29810;55.848;37.368;2023-06-14T15:16:10;6.00;;;3.62;;
44147;SDS011;29810;55.848;37.368;2023-06-14T15:19:11;7.25;;;3.97;;
44147;SDS011;29810;55.848;37.368;2023-06-14T15:22:13;6.30;;;3.65;;
44147;SDS011;29810;55.848;37.368;2023-06-14T15:25:18;6.12;;;3.60;;
44147;SDS011;29810;55.848;37.368;2023-06-14T15:28:22;5.22;;;3.35;;
44147;SDS011;29810;55.848;37.368;2023-06-14T15:31:25;5.18;;;3.80;;
44147;SDS011;29810;55.848;37.368;2023-06-14T15:34:29;10.63;;;4.37;;
44147;SDS011;29810;55.848;37.368;2023-06-14T15:37:30;8.43;;;3.60;;
44147;SDS011;29810;55.848;37.368;2023-06-14T15:40:32;9.27;;;3.92;;
44147;SDS011;29810;55.848;37.368;2023-06-14T15:43:33;5.97;;;3.65;;
44147;SDS011;29810;55.848;37.368;2023-06-14T15:46:35;5.75;;;3.50;;
44147;SDS011;29810;55.848;37.368;2023-06-14T15:49:36;5.65;;;3.78;;
44147;SDS011;29810;55.848;37.368;2023-06-14T15:52:38;8.15;;;3.95;;
44147;SDS011;29810;55.848;37.368;2023-06-14T15:55:40;6.72;;;3.87;;
44147;SDS011;29810;55.848;37.368;2023-06-14T15:58:42;6.22;;;3.80;;
44147;SDS011;29810;55.848;37.368;2023-06-14T16:01:43;6.43;;;3.58;;
44147;SDS011;29810;55.848;37.368;2023-06-14T16:04:45;6.75;;;3.60;;
44147;SDS011;29810;55.848;37.368;2023-06-14T16:07:48;7.43;;;3.80;;
44147;SDS011;29810;55.848;37.368;2023-06-14T16:10:50;4.45;;;3.08;;
44147;SDS011;29810;55.848;37.368;2023-06-14T16:13:51;6.50;;;3.47;;
44147;SDS011;29810;55.848;37.368;2023-06-14T16:16:54;5.35;;;3.90;;
44147;SDS011;29810;55.848;37.368;2023-06-14T16:20:08;6.05;;;3.50;;
44147;SDS011;29810;55.848;37.368;2023-06-14T16:23:10;4.12;;;3.28;;
44147;SDS011;29810;55.848;37.368;2023-06-14T16:26:12;7.50;;;3.40;;
44147;SDS011;29810;55.848;37.368;2023-06-14T16:29:13;4.18;;;3.20;;
44147;SDS011;29810;55.848;37.368;2023-06-14T16:32:19;6.57;;;3.80;;
44147;SDS011;29810;55.848;37.368;2023-06-14T16:35:23;5.62;;;3.45;;
44147;SDS011;29810;55.848;37.368;2023-06-14T16:38:24;5.65;;;3.67;;
44147;SDS011;29810;55.848;37.368;2023-06-14T16:41:26;7.68;;;3.85;;
44147;SDS011;29810;55.848;37.368;2023-06-14T16:44:27;5.90;;;3.87;;
44147;SDS011;29810;55.848;37.368;2023-06-14T16:47:29;8.80;;;3.95;;
44147;SDS011;29810;55.848;37.368;2023-06-14T16:50:30;5.75;;;3.58;;
44147;SDS011;29810;55.848;37.368;2023-06-14T16:53:37;6.47;;;3.87;;
44147;SDS011;29810;55.848;37.368;2023-06-14T16:56:38;9.07;;;3.92;;
44147;SDS011;29810;55.848;37.368;2023-06-14T16:59:40;6.65;;;3.55;;
44147;SDS011;29810;55.848;37.368;2023-06-14T17:02:41;10.25;;;3.65;;
44147;SDS011;29810;55.848;37.368;2023-06-14T17:05:59;10.30;;;4.27;;
44147;SDS011;29810;55.848;37.368;2023-06-14T17:09:00;7.62;;;4.00;;
44147;SDS011;29810;55.848;37.368;2023-06-14T17:12:02;7.72;;;3.87;;
44147;SDS011;29810;55.848;37.368;2023-06-14T17:15:04;6.32;;;3.95;;
44147;SDS011;29810;55.848;37.368;2023-06-14T17:18:06;7.15;;;3.90;;
44147;SDS011;29810;55.848;37.368;2023-06-14T17:21:08;6.07;;;4.00;;
44147;SDS011;29810;55.848;37.368;2023-06-14T17:24:10;6.00;;;4.10;;
44147;SDS011;29810;55.848;37.368;2023-06-14T17:27:11;7.45;;;3.58;;
44147;SDS011;29810;55.848;37.368;2023-06-14T17:30:13;7.37;;;3.75;;
44147;SDS011;29810;55.848;37.368;2023-06-14T17:33:15;5.53;;;3.85;;
44147;SDS011;29810;55.848;37.368;2023-06-14T17:36:18;5.45;;;3.33;;
44147;SDS011;29810;55.848;37.368;2023-06-14T17:39:20;6.20;;;4.10;;
44147;SDS011;29810;55.848;37.368;2023-06-14T17:42:22;6.60;;;4.10;;
44147;SDS011;29810;55.848;37.368;2023-06-14T17:45:23;7.12;;;3.97;;
44147;SDS011;29810;55.848;37.368;2023-06-14T17:48:25;8.05;;;3.65;;
44147;SDS011;29810;55.848;37.368;2023-06-14T17:51:27;7.57;;;3.78;;
44147;SDS011;29810;55.848;37.368;2023-06-14T17:54:28;7.62;;;4.00;;
44147;SDS011;29810;55.848;37.368;2023-06-14T17:57:30;6.62;;;3.60;;
44147;SDS011;29810;55.848;37.368;2023-06-14T18:00:31;5.95;;;3.65;;
44147;SDS011;29810;55.848;37.368;2023-06-14T18:03:33;6.97;;;4.25;;
44147;SDS011;29810;55.848;37.368;2023-06-14T18:06:35;6.45;;;3.70;;
44147;SDS011;29810;55.848;37.368;2023-06-14T18:09:36;6.47;;;4.07;;
44147;SDS011;29810;55.848;37.368;2023-06-14T18:12:38;8.98;;;4.30;;
44147;SDS011;29810;55.848;37.368;2023-06-14T18:15:40;11.20;;;4.55;;
44147;SDS011;29810;55.848;37.368;2023-06-14T18:18:42;9.63;;;4.62;;
44147;SDS011;29810;55.848;37.368;2023-06-14T18:21:45;10.05;;;5.37;;
44147;SDS011;29810;55.848;37.368;2023-06-14T18:24:47;11.82;;;5.18;;
44147;SDS011;29810;55.848;37.368;2023-06-14T18:27:49;10.45;;;4.90;;